Aviation Digital Data Service (ADDS)

Output produced by TAFs form (0905 UTC 28 August 2014)
found at http://aviationweather.gov/adds/tafs/
 
KAEG 280535Z 2806/2906 31005KT P6SM SKC 
     FM281900 30011KT P6SM FEW070 
     FM282200 32014G22KT P6SM SCT070 
     FM290300 33009KT P6SM SKC